ローマ/フィウミチーノ の空港の天気 - METARとTAF

ローマ・レオナルド・ダ・ビンチ国際空港 ( LIRF / FCO ) - イタリア ローマ
飛行場実況気象(Metar)
観測時間05/28 01:50 CEST (05/27 23:50 UTC)
風向・風速北東 3m/s
視程10km以上
天気現象
なし
気温15℃
湿度51%
気圧1025hPa
METARLIRF 272350Z 04005KT 010V080 CAVOK 15/05 Q1025 NOSIG
過去の天気等 Google飛行場航空写真 Wunderground天気予報

過去48時間のMETAR

飛行場予報(TAF)
発表時間: 5/28 01:00 CEST (5/27 23:00 UTC)
予報対象時間: 28日2時 CEST ~ 29日8時 CEST
風向・風速北北東 4m/s
視程10km以上
なし
28日10時 CEST ~ 28日12時 CEST に徐々に
風向・風速西南西 5m/s
28日20時 CEST ~ 28日22時 CEST に徐々に
風向・風速不定 2m/s
TAF LIRF 272300Z 2800/2906 03008KT CAVOK
BECMG 2808/2810 24010KT
BECMG 2818/2820 VRB04KT